createdAt,value
2023-03-08T00:00:15.189Z,961.21
2023-03-08T00:01:15.175Z,961.28
2023-03-08T00:02:15.153Z,961.24
2023-03-08T00:03:15.140Z,961.23
2023-03-08T00:04:15.312Z,961.28
2023-03-08T00:05:15.110Z,961.25
2023-03-08T00:06:15.093Z,961.31
2023-03-08T00:07:15.074Z,961.30
2023-03-08T00:08:15.089Z,961.33
2023-03-08T00:09:15.044Z,961.33
2023-03-08T00:10:15.027Z,961.26
2023-03-08T00:11:15.033Z,961.24
2023-03-08T00:12:14.996Z,961.27
2023-03-08T00:13:14.983Z,961.26
2023-03-08T00:14:14.964Z,961.30
2023-03-08T00:15:14.950Z,961.25
2023-03-08T00:16:14.983Z,961.27
2023-03-08T00:17:14.932Z,961.27
2023-03-08T00:18:14.898Z,961.32
2023-03-08T00:19:14.884Z,961.33
2023-03-08T00:20:14.864Z,961.30
2023-03-08T00:21:14.852Z,961.26
2023-03-08T00:22:14.833Z,961.23
2023-03-08T00:23:14.819Z,961.24
2023-03-08T00:24:14.800Z,961.19
2023-03-08T00:25:14.789Z,961.23
2023-03-08T00:26:14.779Z,961.27
2023-03-08T00:27:14.798Z,961.28
2023-03-08T00:28:14.737Z,961.26
2023-03-08T00:29:14.810Z,961.21
2023-03-08T00:30:14.710Z,961.18
2023-03-08T00:31:14.738Z,961.18
2023-03-08T00:32:14.723Z,961.16
2023-03-08T00:33:14.664Z,961.10
2023-03-08T00:34:14.644Z,961.05
2023-03-08T00:35:14.629Z,961.02
2023-03-08T00:36:14.611Z,961.02
2023-03-08T00:37:14.602Z,961.00
2023-03-08T00:38:14.581Z,960.96
2023-03-08T00:39:14.578Z,960.98
2023-03-08T00:40:14.548Z,960.96
2023-03-08T00:41:14.536Z,960.94
2023-03-08T00:42:14.521Z,960.92
2023-03-08T00:43:14.524Z,960.91
2023-03-08T00:44:14.482Z,960.92
2023-03-08T00:45:14.474Z,960.93
2023-03-08T00:46:14.465Z,960.91
2023-03-08T00:47:14.440Z,960.90
2023-03-08T00:48:14.418Z,960.89
2023-03-08T00:49:14.406Z,960.84
2023-03-08T00:50:14.396Z,960.77
2023-03-08T00:51:14.376Z,960.78
2023-03-08T00:52:14.358Z,960.82
2023-03-08T00:53:14.347Z,960.84
2023-03-08T00:54:14.329Z,960.75
2023-03-08T00:55:14.312Z,960.76
2023-03-08T00:56:14.291Z,960.80
2023-03-08T00:57:14.280Z,960.83
2023-03-08T00:58:14.262Z,960.82
2023-03-08T00:59:14.367Z,960.82
2023-03-08T01:00:14.231Z,960.81
2023-03-08T01:01:14.349Z,960.81
2023-03-08T01:02:14.195Z,960.79
2023-03-08T01:03:14.181Z,960.76
2023-03-08T01:04:14.212Z,960.74
2023-03-08T01:05:14.149Z,960.67
2023-03-08T01:06:14.129Z,960.59
2023-03-08T01:07:14.116Z,960.57
2023-03-08T01:08:14.097Z,960.53
2023-03-08T01:09:14.085Z,960.53
2023-03-08T01:10:14.065Z,960.47
2023-03-08T01:11:14.052Z,960.44
2023-03-08T01:12:14.035Z,960.38
2023-03-08T01:13:14.020Z,960.34
2023-03-08T01:14:14.002Z,960.34
2023-03-08T01:15:14.008Z,960.33
2023-03-08T01:16:13.967Z,960.26
2023-03-08T01:17:13.969Z,960.29
2023-03-08T01:18:13.934Z,960.25
2023-03-08T01:19:13.940Z,960.25
2023-03-08T01:20:13.902Z,960.27
2023-03-08T01:21:13.897Z,960.27
2023-03-08T01:22:13.871Z,960.21
2023-03-08T01:23:13.856Z,960.18
2023-03-08T01:24:13.838Z,960.12
2023-03-08T01:25:13.830Z,960.12
2023-03-08T01:26:13.807Z,960.12
2023-03-08T01:27:13.793Z,960.14
2023-03-08T01:28:13.773Z,960.11
2023-03-08T01:29:13.759Z,960.07
2023-03-08T01:30:13.743Z,960.12
2023-03-08T01:31:13.754Z,960.06
2023-03-08T01:32:13.758Z,960.05
2023-03-08T01:33:13.698Z,960.01
2023-03-08T01:34:13.675Z,959.99
2023-03-08T01:35:13.663Z,959.93
2023-03-08T01:36:13.642Z,959.90
2023-03-08T01:37:13.628Z,959.97
2023-03-08T01:38:13.609Z,959.95
2023-03-08T01:39:13.617Z,959.95
2023-03-08T01:40:13.575Z,959.94
2023-03-08T01:41:13.569Z,959.86
2023-03-08T01:42:13.542Z,959.85
2023-03-08T01:43:13.527Z,959.83
2023-03-08T01:44:13.519Z,959.81
2023-03-08T01:45:13.494Z,959.79
2023-03-08T01:46:13.475Z,959.80
2023-03-08T01:47:13.661Z,959.80
2023-03-08T01:48:13.442Z,959.79
2023-03-08T01:49:13.438Z,959.75
2023-03-08T01:50:13.414Z,959.74
2023-03-08T01:51:13.398Z,959.75
2023-03-08T01:52:13.376Z,959.74
2023-03-08T01:53:13.378Z,959.74
2023-03-08T01:54:13.344Z,959.73
2023-03-08T01:55:13.329Z,959.72
2023-03-08T01:56:13.319Z,959.71
2023-03-08T01:57:13.299Z,959.73
2023-03-08T01:58:13.280Z,959.71
2023-03-08T01:59:13.273Z,959.79
2023-03-08T02:00:13.246Z,959.83
2023-03-08T02:01:13.280Z,959.75
2023-03-08T02:02:13.213Z,959.74
2023-03-08T02:03:13.225Z,959.63
2023-03-08T02:04:13.184Z,959.69
2023-03-08T02:05:13.167Z,959.68
2023-03-08T02:06:13.149Z,959.64
2023-03-08T02:07:13.136Z,959.66
2023-03-08T02:08:13.116Z,959.68
2023-03-08T02:09:13.114Z,959.65
2023-03-08T02:10:13.083Z,959.62
2023-03-08T02:11:13.073Z,959.57
2023-03-08T02:12:13.057Z,959.53
2023-03-08T02:13:13.041Z,959.54
2023-03-08T02:14:13.025Z,959.56
2023-03-08T02:15:13.013Z,959.58
2023-03-08T02:16:12.990Z,959.59
2023-03-08T02:17:12.995Z,959.54
2023-03-08T02:18:12.960Z,959.48
2023-03-08T02:19:12.962Z,959.44
2023-03-08T02:20:12.926Z,959.43
2023-03-08T02:21:12.931Z,959.41
2023-03-08T02:22:12.912Z,959.48
2023-03-08T02:23:12.880Z,959.44
2023-03-08T02:24:12.862Z,959.38
2023-03-08T02:25:12.852Z,959.32
2023-03-08T02:26:12.839Z,959.32
2023-03-08T02:27:12.817Z,959.32
2023-03-08T02:28:12.800Z,959.30
2023-03-08T02:29:12.782Z,959.28
2023-03-08T02:30:12.769Z,959.26
2023-03-08T02:31:12.751Z,959.24
2023-03-08T02:32:12.747Z,959.25
2023-03-08T02:33:12.717Z,959.22
2023-03-08T02:34:12.705Z,959.20
2023-03-08T02:35:12.703Z,959.17
2023-03-08T02:36:12.675Z,959.15
2023-03-08T02:37:12.665Z,959.13
2023-03-08T02:38:12.639Z,959.11
2023-03-08T02:39:12.620Z,959.01
2023-03-08T02:40:12.620Z,959.00
2023-03-08T02:41:12.589Z,958.92
2023-03-08T02:42:12.578Z,958.95
2023-03-08T02:43:12.564Z,958.87
2023-03-08T02:44:12.545Z,958.87
2023-03-08T02:45:12.526Z,958.86
2023-03-08T02:46:12.514Z,958.87
2023-03-08T02:47:12.490Z,958.83
2023-03-08T02:48:12.479Z,958.82
2023-03-08T02:49:12.457Z,958.76
2023-03-08T02:50:12.445Z,958.79
2023-03-08T02:51:12.445Z,958.77
2023-03-08T02:52:12.411Z,958.77
2023-03-08T02:53:12.392Z,958.77
2023-03-08T02:54:12.379Z,958.76
2023-03-08T02:55:12.358Z,958.72
2023-03-08T02:56:12.353Z,958.67
2023-03-08T02:57:12.338Z,958.66
2023-03-08T02:58:12.312Z,958.72
2023-03-08T02:59:12.293Z,958.71
2023-03-08T03:00:12.282Z,958.62
2023-03-08T03:01:12.306Z,958.60
2023-03-08T03:02:12.245Z,958.62
2023-03-08T03:03:12.242Z,958.64
2023-03-08T03:04:12.223Z,958.59
2023-03-08T03:05:12.193Z,958.57
2023-03-08T03:06:12.218Z,958.56
2023-03-08T03:07:12.182Z,958.48
2023-03-08T03:08:12.152Z,958.48
2023-03-08T03:09:12.133Z,958.47
2023-03-08T03:10:12.128Z,958.48
2023-03-08T03:11:12.102Z,958.49
2023-03-08T03:12:12.098Z,958.51
2023-03-08T03:13:12.060Z,958.55
2023-03-08T03:14:12.046Z,958.55
2023-03-08T03:15:12.031Z,958.56
2023-03-08T03:16:12.072Z,958.59
2023-03-08T03:17:12.000Z,958.59
2023-03-08T03:18:11.983Z,958.57
2023-03-08T03:19:11.959Z,958.55
2023-03-08T03:20:11.957Z,958.54
2023-03-08T03:21:11.930Z,958.53
2023-03-08T03:22:11.911Z,958.47
2023-03-08T03:23:12.013Z,958.43
2023-03-08T03:24:11.885Z,958.40
2023-03-08T03:25:11.866Z,958.40
2023-03-08T03:26:12.052Z,958.41
2023-03-08T03:27:11.842Z,958.40
2023-03-08T03:28:11.809Z,958.44
2023-03-08T03:29:11.794Z,958.44
2023-03-08T03:30:11.795Z,958.40
2023-03-08T03:31:11.822Z,958.41
2023-03-08T03:32:11.840Z,958.37
2023-03-08T03:33:11.737Z,958.33
2023-03-08T03:34:11.714Z,958.30
2023-03-08T03:35:11.690Z,958.27
2023-03-08T03:36:11.676Z,958.31
2023-03-08T03:37:11.658Z,958.28
2023-03-08T03:38:11.644Z,958.29
2023-03-08T03:39:11.666Z,958.32
2023-03-08T03:40:11.610Z,958.32
2023-03-08T03:41:11.591Z,958.28
2023-03-08T03:42:11.576Z,958.26
2023-03-08T03:43:11.557Z,958.19
2023-03-08T03:44:11.544Z,958.14
2023-03-08T03:45:11.529Z,958.07
2023-03-08T03:46:11.724Z,958.07
2023-03-08T03:47:11.496Z,958.11
2023-03-08T03:48:11.485Z,958.09
2023-03-08T03:49:11.463Z,958.11
2023-03-08T03:50:11.456Z,958.05
2023-03-08T03:51:11.430Z,958.10
2023-03-08T03:52:11.417Z,958.09
2023-03-08T03:53:11.412Z,958.03
2023-03-08T03:54:11.387Z,958.05
2023-03-08T03:55:11.451Z,957.97
2023-03-08T03:56:11.353Z,957.96
2023-03-08T03:57:11.343Z,957.95
2023-03-08T03:58:11.321Z,957.89
2023-03-08T03:59:11.300Z,957.85
2023-03-08T04:00:11.289Z,957.84
2023-03-08T04:01:11.269Z,957.83
2023-03-08T04:02:11.257Z,957.79
2023-03-08T04:03:11.430Z,957.83
2023-03-08T04:04:11.231Z,957.81
2023-03-08T04:05:11.206Z,957.80
2023-03-08T04:06:11.191Z,957.81
2023-03-08T04:07:11.170Z,957.83
2023-03-08T04:08:11.159Z,957.77
2023-03-08T04:09:11.137Z,957.75
2023-03-08T04:10:11.124Z,957.74
2023-03-08T04:11:11.126Z,957.71
2023-03-08T04:12:11.090Z,957.70
2023-03-08T04:13:11.074Z,957.66
2023-03-08T04:14:11.057Z,957.68
2023-03-08T04:15:11.041Z,957.67
2023-03-08T04:16:11.057Z,957.65
2023-03-08T04:17:11.008Z,957.65
2023-03-08T04:18:10.994Z,957.70
2023-03-08T04:19:10.973Z,957.67
2023-03-08T04:20:10.958Z,957.67
2023-03-08T04:21:10.957Z,957.67
2023-03-08T04:22:10.925Z,957.64
2023-03-08T04:23:10.908Z,957.64
2023-03-08T04:24:10.890Z,957.60
2023-03-08T04:25:10.875Z,957.58
2023-03-08T04:26:10.859Z,957.56
2023-03-08T04:27:10.859Z,957.57
2023-03-08T04:28:10.824Z,957.56
2023-03-08T04:29:10.803Z,957.61
2023-03-08T04:30:10.792Z,957.59
2023-03-08T04:31:10.812Z,957.60
2023-03-08T04:32:10.782Z,957.62
2023-03-08T04:33:10.738Z,957.59
2023-03-08T04:34:10.725Z,957.58
2023-03-08T04:35:10.706Z,957.59
2023-03-08T04:36:10.690Z,957.53
2023-03-08T04:37:10.671Z,957.54
2023-03-08T04:38:10.658Z,957.52
2023-03-08T04:39:10.667Z,957.50
2023-03-08T04:40:10.626Z,957.45
2023-03-08T04:41:10.607Z,957.51
2023-03-08T04:42:10.593Z,957.45
2023-03-08T04:43:10.607Z,957.49
2023-03-08T04:44:10.559Z,957.47
2023-03-08T04:45:10.549Z,957.46
2023-03-08T04:46:10.531Z,957.42
2023-03-08T04:47:10.506Z,957.39
2023-03-08T04:48:10.494Z,957.42
2023-03-08T04:49:10.475Z,957.39
2023-03-08T04:50:10.462Z,957.42
2023-03-08T04:51:10.447Z,957.38
2023-03-08T04:52:10.431Z,957.38
2023-03-08T04:53:10.430Z,957.39
2023-03-08T04:54:10.407Z,957.33
2023-03-08T04:55:10.384Z,957.34
2023-03-08T04:56:10.363Z,957.34
2023-03-08T04:57:10.346Z,957.32
2023-03-08T04:58:10.330Z,957.29
2023-03-08T04:59:10.337Z,957.33
2023-03-08T05:00:10.307Z,957.29
2023-03-08T05:01:10.282Z,957.27
2023-03-08T05:02:10.316Z,957.20
2023-03-08T05:03:10.251Z,957.20
2023-03-08T05:04:10.231Z,957.18
2023-03-08T05:05:10.261Z,957.14
2023-03-08T05:06:10.203Z,957.11
2023-03-08T05:07:10.185Z,957.10
2023-03-08T05:08:10.169Z,957.16
2023-03-08T05:09:10.148Z,957.11
2023-03-08T05:10:10.145Z,957.15
2023-03-08T05:11:10.149Z,957.16
2023-03-08T05:12:10.099Z,957.12
2023-03-08T05:13:10.083Z,957.12
2023-03-08T05:14:10.088Z,957.02
2023-03-08T05:15:10.071Z,957.05
2023-03-08T05:16:10.106Z,957.03
2023-03-08T05:17:10.020Z,957.03
2023-03-08T05:18:10.035Z,957.02
2023-03-08T05:19:10.005Z,957.01
2023-03-08T05:20:09.972Z,956.98
2023-03-08T05:21:09.953Z,956.93
2023-03-08T05:22:09.957Z,956.97
2023-03-08T05:23:09.921Z,956.97
2023-03-08T05:24:09.930Z,956.98
2023-03-08T05:25:09.897Z,956.97
2023-03-08T05:26:09.877Z,957.00
2023-03-08T05:27:09.855Z,957.05
2023-03-08T05:28:09.843Z,957.07
2023-03-08T05:29:09.823Z,957.08
2023-03-08T05:30:09.813Z,957.09
2023-03-08T05:31:09.909Z,957.02
2023-03-08T05:32:09.810Z,956.96
2023-03-08T05:33:09.764Z,956.97
2023-03-08T05:34:09.745Z,956.97
2023-03-08T05:35:09.728Z,956.96
2023-03-08T05:36:09.740Z,956.96
2023-03-08T05:37:09.706Z,956.96
2023-03-08T05:38:09.679Z,956.93
2023-03-08T05:39:09.660Z,956.92
2023-03-08T05:40:09.646Z,956.88
2023-03-08T05:41:09.629Z,956.91
2023-03-08T05:42:09.615Z,956.86
2023-03-08T05:43:09.598Z,956.85
2023-03-08T05:44:09.584Z,956.86
2023-03-08T05:45:09.630Z,956.81
2023-03-08T05:46:09.585Z,956.85
2023-03-08T05:47:09.588Z,956.87
2023-03-08T05:48:09.518Z,956.85
2023-03-08T05:49:09.499Z,956.88
2023-03-08T05:50:09.487Z,956.83
2023-03-08T05:51:09.465Z,956.82
2023-03-08T05:52:09.455Z,956.81
2023-03-08T05:53:09.439Z,956.74
2023-03-08T05:54:09.420Z,956.81
2023-03-08T05:55:09.402Z,956.80
2023-03-08T05:56:09.392Z,956.77
2023-03-08T05:57:09.368Z,956.78
2023-03-08T05:58:09.354Z,956.77
2023-03-08T05:59:09.334Z,956.75
2023-03-08T06:00:09.320Z,956.83
2023-03-08T06:01:09.313Z,956.81
2023-03-08T06:02:09.355Z,956.77
2023-03-08T06:03:09.414Z,956.78
2023-03-08T06:04:09.264Z,956.72
2023-03-08T06:05:09.241Z,956.67
2023-03-08T06:06:09.223Z,956.65
2023-03-08T06:07:09.206Z,956.61
2023-03-08T06:08:09.191Z,956.60
2023-03-08T06:09:09.174Z,956.53
2023-03-08T06:10:09.159Z,956.50
2023-03-08T06:11:09.138Z,956.52
2023-03-08T06:12:09.126Z,956.48
2023-03-08T06:13:09.106Z,956.48
2023-03-08T06:14:09.094Z,956.53
2023-03-08T06:15:09.073Z,956.52
2023-03-08T06:16:09.067Z,956.51
2023-03-08T06:17:09.042Z,956.48
2023-03-08T06:18:09.035Z,956.41
2023-03-08T06:19:09.031Z,956.38
2023-03-08T06:20:08.996Z,956.38
2023-03-08T06:21:08.980Z,956.41
2023-03-08T06:22:08.966Z,956.39
2023-03-08T06:23:08.946Z,956.39
2023-03-08T06:24:08.936Z,956.39
2023-03-08T06:25:08.914Z,956.45
2023-03-08T06:26:08.904Z,956.45
2023-03-08T06:27:08.882Z,956.51
2023-03-08T06:28:08.872Z,956.51
2023-03-08T06:29:08.856Z,956.59
2023-03-08T06:30:08.846Z,956.60
2023-03-08T06:31:08.920Z,956.56
2023-03-08T06:32:08.839Z,956.50
2023-03-08T06:33:08.794Z,956.51
2023-03-08T06:34:08.779Z,956.45
2023-03-08T06:35:08.784Z,956.51
2023-03-08T06:36:08.749Z,956.51
2023-03-08T06:37:08.733Z,956.45
2023-03-08T06:38:08.721Z,956.55
2023-03-08T06:39:08.699Z,956.56
2023-03-08T06:40:08.686Z,956.59
2023-03-08T06:41:08.689Z,956.62
2023-03-08T06:42:08.665Z,956.55
2023-03-08T06:43:08.636Z,956.54
2023-03-08T06:44:08.624Z,956.58
2023-03-08T06:45:08.641Z,956.51
2023-03-08T06:46:08.685Z,956.53
2023-03-08T06:47:08.577Z,956.44
2023-03-08T06:48:08.565Z,956.38
2023-03-08T06:49:08.547Z,956.36
2023-03-08T06:50:08.534Z,956.39
2023-03-08T06:51:08.556Z,956.42
2023-03-08T06:52:08.498Z,956.35
2023-03-08T06:53:08.484Z,956.44
2023-03-08T06:54:08.469Z,956.54
2023-03-08T06:55:08.451Z,956.47
2023-03-08T06:56:08.440Z,956.47
2023-03-08T06:57:08.425Z,956.44
2023-03-08T06:58:08.414Z,956.54
2023-03-08T06:59:08.394Z,956.51
2023-03-08T07:00:08.374Z,956.46
2023-03-08T07:01:08.452Z,956.45
2023-03-08T07:02:08.339Z,956.43
2023-03-08T07:03:08.327Z,956.44
2023-03-08T07:04:08.372Z,956.49
2023-03-08T07:05:08.302Z,956.46
2023-03-08T07:06:08.283Z,956.48
2023-03-08T07:07:08.408Z,956.41
2023-03-08T07:08:08.249Z,956.38
2023-03-08T07:09:08.232Z,956.32
2023-03-08T07:10:08.211Z,956.33
2023-03-08T07:11:08.204Z,956.30
2023-03-08T07:12:08.266Z,956.32
2023-03-08T07:13:08.165Z,956.38
2023-03-08T07:14:08.152Z,956.37
2023-03-08T07:15:08.135Z,956.30
2023-03-08T07:16:08.242Z,956.35
2023-03-08T07:17:08.106Z,956.30
2023-03-08T07:18:08.097Z,956.29
2023-03-08T07:19:08.073Z,956.30
2023-03-08T07:20:08.055Z,956.27
2023-03-08T07:21:08.051Z,956.29
2023-03-08T07:22:08.023Z,956.33
2023-03-08T07:23:08.088Z,956.45
2023-03-08T07:24:08.000Z,956.47
2023-03-08T07:25:07.983Z,956.57
2023-03-08T07:26:08.061Z,956.50
2023-03-08T07:27:07.948Z,956.49
2023-03-08T07:28:07.989Z,956.42
2023-03-08T07:29:07.925Z,956.44
2023-03-08T07:30:07.905Z,956.32
2023-03-08T07:31:07.895Z,956.42
2023-03-08T07:32:08.020Z,956.39
2023-03-08T07:33:07.863Z,956.29
2023-03-08T07:34:07.851Z,956.34
2023-03-08T07:35:07.825Z,956.35
2023-03-08T07:36:07.831Z,956.26
2023-03-08T07:37:07.798Z,956.38
2023-03-08T07:38:07.780Z,956.43
2023-03-08T07:39:07.794Z,956.49
2023-03-08T07:40:07.749Z,956.44
2023-03-08T07:41:07.737Z,956.48
2023-03-08T07:42:07.718Z,956.54
2023-03-08T07:43:07.716Z,956.51
2023-03-08T07:44:07.718Z,956.53
2023-03-08T07:45:07.678Z,956.47
2023-03-08T07:46:07.713Z,956.53
2023-03-08T07:47:07.646Z,956.60
2023-03-08T07:48:07.629Z,956.42
2023-03-08T07:49:07.616Z,956.31
2023-03-08T07:50:07.599Z,956.40
2023-03-08T07:51:07.599Z,956.37
2023-03-08T07:52:07.568Z,956.42
2023-03-08T07:53:07.558Z,956.30
2023-03-08T07:54:07.539Z,956.34
2023-03-08T07:55:07.560Z,956.32
2023-03-08T07:56:07.507Z,956.33
2023-03-08T07:57:07.520Z,956.31
2023-03-08T07:58:07.480Z,956.35
2023-03-08T07:59:07.466Z,956.34
2023-03-08T08:00:07.476Z,956.30
2023-03-08T08:01:07.446Z,956.29
2023-03-08T08:02:07.426Z,956.28
2023-03-08T08:03:07.485Z,956.24
2023-03-08T08:04:07.414Z,956.16
2023-03-08T08:05:07.426Z,956.18
2023-03-08T08:06:07.362Z,956.18
2023-03-08T08:07:07.360Z,956.09
2023-03-08T08:08:07.334Z,956.06
2023-03-08T08:09:07.319Z,956.04
2023-03-08T08:10:07.301Z,956.12
2023-03-08T08:11:07.309Z,956.06
2023-03-08T08:12:07.275Z,956.06
2023-03-08T08:13:07.256Z,956.18
2023-03-08T08:14:07.241Z,956.20
2023-03-08T08:15:07.227Z,956.08
2023-03-08T08:16:07.365Z,956.19
2023-03-08T08:17:07.203Z,956.10
2023-03-08T08:18:07.177Z,956.06
2023-03-08T08:19:07.168Z,955.96
2023-03-08T08:20:07.148Z,955.98
2023-03-08T08:21:07.135Z,956.06
2023-03-08T08:22:07.116Z,956.07
2023-03-08T08:23:07.103Z,955.97
2023-03-08T08:24:07.086Z,955.99
2023-03-08T08:25:07.082Z,956.05
2023-03-08T08:26:07.064Z,956.01
2023-03-08T08:27:07.061Z,955.92
2023-03-08T08:28:07.025Z,955.93
2023-03-08T08:29:07.093Z,955.86
2023-03-08T08:30:06.995Z,955.83
2023-03-08T08:31:07.028Z,955.79
2023-03-08T08:32:07.020Z,955.83
2023-03-08T08:33:06.954Z,955.83
2023-03-08T08:34:06.935Z,955.86
2023-03-08T08:35:06.932Z,955.84
2023-03-08T08:36:06.954Z,955.79
2023-03-08T08:37:06.894Z,955.73
2023-03-08T08:38:06.878Z,955.86
2023-03-08T08:39:06.884Z,955.85
2023-03-08T08:40:06.846Z,955.73
2023-03-08T08:41:06.834Z,955.91
2023-03-08T08:42:06.817Z,955.90
2023-03-08T08:43:06.838Z,955.86
2023-03-08T08:44:06.792Z,955.97
2023-03-08T08:45:06.779Z,955.80
2023-03-08T08:46:06.820Z,955.83
2023-03-08T08:47:06.751Z,955.83
2023-03-08T08:48:06.729Z,955.68
2023-03-08T08:49:06.725Z,955.91
2023-03-08T08:50:06.704Z,955.83
2023-03-08T08:51:06.685Z,955.82
2023-03-08T08:52:06.675Z,955.81
2023-03-08T08:53:06.783Z,955.79
2023-03-08T08:54:06.722Z,955.72
2023-03-08T08:55:06.627Z,955.76
2023-03-08T08:56:12.027Z,955.83
2023-03-08T08:57:06.597Z,955.89
2023-03-08T08:58:06.580Z,955.79
2023-03-08T08:59:06.586Z,955.88
2023-03-08T09:00:06.550Z,955.73
2023-03-08T09:01:08.631Z,955.79
2023-03-08T09:02:06.599Z,955.84
2023-03-08T09:03:06.507Z,956.02
2023-03-08T09:04:06.513Z,955.82
2023-03-08T09:05:06.603Z,955.96
2023-03-08T09:06:06.461Z,955.92
2023-03-08T09:07:06.449Z,955.98
2023-03-08T09:08:06.431Z,955.83
2023-03-08T09:09:06.420Z,956.07
2023-03-08T09:10:06.400Z,955.72
2023-03-08T09:11:06.389Z,955.99
2023-03-08T09:12:06.371Z,955.87
2023-03-08T09:13:06.390Z,955.95
2023-03-08T09:14:06.342Z,956.04
2023-03-08T09:15:06.376Z,955.98
2023-03-08T09:16:06.347Z,956.10
2023-03-08T09:17:06.299Z,956.03
2023-03-08T09:18:06.283Z,956.10
2023-03-08T09:19:06.282Z,956.02
2023-03-08T09:20:06.257Z,956.02
2023-03-08T09:21:06.273Z,956.11
2023-03-08T09:22:06.227Z,956.08
2023-03-08T09:23:06.233Z,956.13
2023-03-08T09:24:06.217Z,956.03
2023-03-08T09:25:06.187Z,956.00
2023-03-08T09:26:06.179Z,956.05
2023-03-08T09:27:06.163Z,956.08
2023-03-08T09:28:06.141Z,956.12
2023-03-08T09:29:06.130Z,956.06
2023-03-08T09:30:06.114Z,956.04
2023-03-08T09:31:06.126Z,956.08
2023-03-08T09:32:06.304Z,956.08
2023-03-08T09:33:06.073Z,956.10
2023-03-08T09:34:06.055Z,955.98
2023-03-08T09:35:06.044Z,956.06
2023-03-08T09:36:06.024Z,955.86
2023-03-08T09:37:06.017Z,955.96
2023-03-08T09:38:05.998Z,956.11
2023-03-08T09:39:05.986Z,956.04
2023-03-08T09:40:05.968Z,956.09
2023-03-08T09:41:05.966Z,956.01
2023-03-08T09:42:05.938Z,956.10
2023-03-08T09:43:05.927Z,956.08
2023-03-08T09:44:05.912Z,956.06
2023-03-08T09:45:07.393Z,956.10
2023-03-08T09:46:05.973Z,956.26
2023-03-08T09:47:05.885Z,956.12
2023-03-08T09:48:05.930Z,956.13
2023-03-08T09:49:05.840Z,956.21
2023-03-08T09:50:05.822Z,956.07
2023-03-08T09:51:05.810Z,955.98
2023-03-08T09:52:05.795Z,956.05
2023-03-08T09:53:05.782Z,955.89
2023-03-08T09:54:05.764Z,956.03
2023-03-08T09:55:05.792Z,956.06
2023-03-08T09:56:05.730Z,956.02
2023-03-08T09:57:05.762Z,955.96
2023-03-08T09:58:05.699Z,956.06
2023-03-08T09:59:05.689Z,955.98
2023-03-08T10:00:05.687Z,956.13
2023-03-08T10:01:05.742Z,955.98
2023-03-08T10:02:05.650Z,956.07
2023-03-08T10:03:05.736Z,956.01
2023-03-08T10:04:05.639Z,956.08
2023-03-08T10:05:13.412Z,956.02
2023-03-08T10:06:05.584Z,956.02
2023-03-08T10:07:05.570Z,956.06
2023-03-08T10:08:05.556Z,956.17
2023-03-08T10:09:05.546Z,956.13
2023-03-08T10:10:05.523Z,956.12
2023-03-08T10:11:05.514Z,956.04
2023-03-08T10:12:08.284Z,956.10
2023-03-08T10:13:05.482Z,956.14
2023-03-08T10:14:05.465Z,956.14
2023-03-08T10:15:05.454Z,956.24
2023-03-08T10:16:05.438Z,956.25
2023-03-08T10:17:05.543Z,956.27
2023-03-08T10:18:05.407Z,956.18
2023-03-08T10:19:05.570Z,956.20
2023-03-08T10:20:05.377Z,956.23
2023-03-08T10:21:05.368Z,956.13
2023-03-08T10:22:05.349Z,956.17
2023-03-08T10:23:05.337Z,956.21
2023-03-08T10:24:05.320Z,956.20
2023-03-08T10:25:05.312Z,956.19
2023-03-08T10:26:05.291Z,956.20
2023-03-08T10:27:05.279Z,956.16
2023-03-08T10:28:05.261Z,956.09
2023-03-08T10:29:05.256Z,956.12
2023-03-08T10:30:05.236Z,956.14
2023-03-08T10:31:05.297Z,956.17
2023-03-08T10:32:05.310Z,956.21
2023-03-08T10:33:05.221Z,956.11
2023-03-08T10:34:05.200Z,956.20
2023-03-08T10:35:05.199Z,956.22
2023-03-08T10:36:05.203Z,956.21
2023-03-08T10:37:05.152Z,956.15
2023-03-08T10:38:05.144Z,956.15
2023-03-08T10:39:05.184Z,956.07
2023-03-08T10:40:05.100Z,956.13
2023-03-08T10:41:05.107Z,956.06
2023-03-08T10:42:05.085Z,956.14
2023-03-08T10:43:05.075Z,956.13
2023-03-08T10:44:05.069Z,956.12
2023-03-08T10:45:05.043Z,955.94
2023-03-08T10:46:05.130Z,956.01
2023-03-08T10:47:05.019Z,956.10
2023-03-08T10:48:05.022Z,956.05
2023-03-08T10:49:04.985Z,956.06
2023-03-08T10:50:04.980Z,956.11
2023-03-08T10:51:05.023Z,956.09
2023-03-08T10:52:04.930Z,956.11
2023-03-08T10:53:04.922Z,956.06
2023-03-08T10:54:04.915Z,956.05
2023-03-08T10:55:04.898Z,956.04
2023-03-08T10:56:04.898Z,956.06
2023-03-08T10:57:04.881Z,956.01
2023-03-08T10:58:04.846Z,956.09
2023-03-08T10:59:04.863Z,956.01
2023-03-08T11:00:04.828Z,956.08
2023-03-08T11:01:04.812Z,956.03
2023-03-08T11:02:04.792Z,956.03
2023-03-08T11:03:04.775Z,956.02
2023-03-08T11:04:04.763Z,955.94
2023-03-08T11:05:04.812Z,956.05
2023-03-08T11:06:04.750Z,956.04
2023-03-08T11:07:04.771Z,956.04
2023-03-08T11:08:04.723Z,955.98
2023-03-08T11:09:04.693Z,956.04
2023-03-08T11:10:04.683Z,956.04
2023-03-08T11:11:04.662Z,956.11
2023-03-08T11:12:04.686Z,956.01
2023-03-08T11:13:04.638Z,956.08
2023-03-08T11:14:04.625Z,956.03
2023-03-08T11:15:04.608Z,956.10
2023-03-08T11:16:04.613Z,956.02
2023-03-08T11:17:04.580Z,956.14
2023-03-08T11:18:04.574Z,956.13
2023-03-08T11:19:04.593Z,956.13
2023-03-08T11:20:04.542Z,956.08
2023-03-08T11:21:04.525Z,956.07
2023-03-08T11:22:04.515Z,956.18
2023-03-08T11:23:04.526Z,956.17
2023-03-08T11:24:04.524Z,956.25
2023-03-08T11:25:04.474Z,956.17
2023-03-08T11:26:04.459Z,956.16
2023-03-08T11:27:04.649Z,956.20
2023-03-08T11:28:04.463Z,956.21
2023-03-08T11:29:04.446Z,956.18
2023-03-08T11:30:04.411Z,956.28
2023-03-08T11:31:04.409Z,956.27
2023-03-08T11:32:04.377Z,956.29
2023-03-08T11:33:04.553Z,956.17
2023-03-08T11:34:04.383Z,956.25
2023-03-08T11:35:04.331Z,956.16
2023-03-08T11:36:04.382Z,956.35
2023-03-08T11:37:04.305Z,956.29
2023-03-08T11:38:04.296Z,956.23
2023-03-08T11:39:04.302Z,956.29
2023-03-08T11:40:04.272Z,956.26
2023-03-08T11:41:04.251Z,956.29
2023-03-08T11:42:04.241Z,956.26
2023-03-08T11:43:04.223Z,956.32
2023-03-08T11:44:04.241Z,956.16
2023-03-08T11:45:04.198Z,956.30
2023-03-08T11:46:04.192Z,956.30
2023-03-08T11:47:04.167Z,956.25
2023-03-08T11:48:04.157Z,956.26
2023-03-08T11:49:04.177Z,956.24
2023-03-08T11:50:04.131Z,956.26
2023-03-08T11:51:04.119Z,956.28
2023-03-08T11:52:04.104Z,956.23
2023-03-08T11:53:04.104Z,956.27
2023-03-08T11:54:04.082Z,956.20
2023-03-08T11:55:04.196Z,956.25
2023-03-08T11:56:04.051Z,956.18
2023-03-08T11:57:04.033Z,956.18
2023-03-08T11:58:04.030Z,956.18
2023-03-08T11:59:04.001Z,956.25
2023-03-08T12:00:03.996Z,956.31
2023-03-08T12:01:03.974Z,956.24
2023-03-08T12:02:03.975Z,956.31
2023-03-08T12:03:03.947Z,956.32
2023-03-08T12:04:04.500Z,956.28
2023-03-08T12:05:04.040Z,956.37
2023-03-08T12:06:04.020Z,956.35
2023-03-08T12:07:04.065Z,956.36
2023-03-08T12:08:03.925Z,956.29
2023-03-08T12:09:03.949Z,956.33
2023-03-08T12:10:03.913Z,956.32
2023-03-08T12:11:03.881Z,956.34
2023-03-08T12:12:03.826Z,956.38
2023-03-08T12:13:03.810Z,956.28
2023-03-08T12:14:03.804Z,956.30
2023-03-08T12:15:03.826Z,956.38
2023-03-08T12:16:03.826Z,956.40
2023-03-08T12:17:03.911Z,956.39
2023-03-08T12:18:03.750Z,956.52
2023-03-08T12:19:03.735Z,956.38
2023-03-08T12:20:03.721Z,956.30
2023-03-08T12:21:03.706Z,956.36
2023-03-08T12:22:03.693Z,956.24
2023-03-08T12:23:03.739Z,956.21
2023-03-08T12:24:04.058Z,956.22
2023-03-08T12:25:03.649Z,956.21
2023-03-08T12:26:03.641Z,956.16
2023-03-08T12:27:03.638Z,956.13
2023-03-08T12:28:03.715Z,956.26